Allison, Colorado
Current Conditions -  °F | °C
As of 1:53 AM on Wednesday 22 Oct 2014 (Local Time) from KDRO Reporting Station
Overcast Overcast  
Wind Chill: 41°   Ceiling: 6000
Heat Index: 45°   Visibility: 10mi
Dew Point: 41°   Wind: 7mph
Humidity: 86%   Direction: 360°N
Pressure: 30.16"   Gusts: NA
Location:  37.0891°N, 107.649°W
Report Text: KDRO 220753Z AUTO 36006KT 10SM BKN060 BKN075 OVC090 07/05 A3016 RMK AO2 SLP167 T00720050 PWINO
Loading
Personal Weather Stations






























Interactive Weather Map
Tropical Storm Tracking
New forecast layout! Learn more

10-Day Weather Forecast

Advertisements
Track Severe Weather on mobile